createdAt,value
2023-05-02T00:00:48.109Z,12.36
2023-05-02T00:03:14.784Z,12.38
2023-05-02T00:05:41.363Z,12.31
2023-05-02T00:08:08.027Z,12.19
2023-05-02T00:10:34.888Z,12.12
2023-05-02T00:13:01.445Z,11.88
2023-05-02T00:15:28.011Z,11.90
2023-05-02T00:17:54.569Z,12.05
2023-05-02T00:20:21.377Z,12.10
2023-05-02T00:22:47.847Z,12.15
2023-05-02T00:25:16.373Z,12.17
2023-05-02T00:27:46.499Z,12.03
2023-05-02T00:30:14.028Z,12.12
2023-05-02T00:32:40.768Z,12.06
2023-05-02T00:35:08.161Z,12.04
2023-05-02T00:37:34.889Z,12.19
2023-05-02T00:40:02.283Z,12.08
2023-05-02T00:42:32.013Z,12.05
2023-05-02T00:44:58.508Z,12.15
2023-05-02T00:47:25.043Z,12.14
2023-05-02T00:49:51.665Z,12.21
2023-05-02T00:52:18.595Z,12.09
2023-05-02T00:54:45.466Z,12.25
2023-05-02T00:57:11.958Z,12.26
2023-05-02T00:59:39.022Z,12.06
2023-05-02T01:02:20.489Z,12.07
2023-05-02T01:05:13.515Z,12.16
2023-05-02T01:08:00.725Z,12.06
2023-05-02T01:10:56.059Z,12.20
2023-05-02T01:13:26.720Z,12.03
2023-05-02T01:15:56.122Z,12.02
2023-05-02T01:18:30.498Z,12.14
2023-05-02T01:21:10.613Z,12.06
2023-05-02T01:24:04.952Z,12.16
2023-05-02T01:26:52.946Z,12.13
2023-05-02T01:29:22.832Z,12.19
2023-05-02T01:31:50.637Z,12.17
2023-05-02T01:34:20.033Z,12.24
2023-05-02T01:36:50.385Z,12.15
2023-05-02T01:39:21.153Z,12.14
2023-05-02T01:41:54.730Z,12.20
2023-05-02T01:44:23.512Z,12.17
2023-05-02T01:46:53.081Z,12.13
2023-05-02T01:49:20.928Z,12.01
2023-05-02T01:51:50.271Z,12.12
2023-05-02T01:54:18.624Z,12.00
2023-05-02T01:56:46.491Z,11.88
2023-05-02T01:59:16.977Z,11.93
2023-05-02T02:01:45.029Z,11.89
2023-05-02T02:04:14.883Z,12.03
2023-05-02T02:06:47.074Z,12.07
2023-05-02T02:09:14.511Z,12.05
2023-05-02T02:11:49.213Z,11.75
2023-05-02T02:14:21.727Z,11.95
2023-05-02T02:16:50.841Z,11.90
2023-05-02T02:19:18.641Z,11.72
2023-05-02T02:21:48.099Z,11.74
2023-05-02T02:24:18.559Z,11.73
2023-05-02T02:26:45.021Z,11.68
2023-05-02T02:29:11.907Z,11.87
2023-05-02T02:31:39.804Z,11.67
2023-05-02T02:34:06.612Z,11.85
2023-05-02T02:36:35.684Z,11.89
2023-05-02T02:39:27.940Z,11.58
2023-05-02T02:42:10.057Z,11.66
2023-05-02T02:45:01.148Z,11.57
2023-05-02T02:47:36.388Z,11.65
2023-05-02T02:50:35.988Z,11.71
2023-05-02T02:53:06.156Z,11.69
2023-05-02T02:55:57.781Z,11.56
2023-05-02T02:58:39.457Z,11.67
2023-05-02T03:01:12.177Z,11.67
2023-05-02T03:03:40.989Z,11.54
2023-05-02T03:06:07.715Z,11.45
2023-05-02T03:08:41.340Z,11.52
2023-05-02T03:11:08.537Z,11.62
2023-05-02T03:13:36.219Z,11.47
2023-05-02T03:16:31.315Z,11.44
2023-05-02T03:18:58.157Z,11.34
2023-05-02T03:21:24.590Z,11.25
2023-05-02T03:23:50.998Z,11.23
2023-05-02T03:26:17.643Z,11.18
2023-05-02T03:28:46.886Z,11.14
2023-05-02T03:31:14.750Z,11.07
2023-05-02T03:33:41.522Z,11.10
2023-05-02T03:36:08.261Z,11.28
2023-05-02T03:38:34.780Z,11.13
2023-05-02T03:41:01.393Z,11.20
2023-05-02T03:43:27.852Z,11.12
2023-05-02T03:45:54.264Z,11.12
2023-05-02T03:48:20.804Z,11.12
2023-05-02T03:50:47.602Z,11.18
2023-05-02T03:53:16.119Z,10.82
2023-05-02T03:55:43.426Z,11.01
2023-05-02T03:58:13.115Z,11.14
2023-05-02T04:00:39.792Z,11.17
2023-05-02T04:03:07.257Z,11.18
2023-05-02T04:05:33.844Z,11.23
2023-05-02T04:08:01.774Z,11.20
2023-05-02T04:10:28.194Z,11.03
2023-05-02T04:12:54.702Z,10.94
2023-05-02T04:15:21.157Z,10.98
2023-05-02T04:17:47.708Z,11.08
2023-05-02T04:20:14.284Z,10.95
2023-05-02T04:22:40.909Z,10.96
2023-05-02T04:25:07.874Z,10.92
2023-05-02T04:27:34.289Z,10.99
2023-05-02T04:30:00.996Z,10.95
2023-05-02T04:32:27.955Z,10.92
2023-05-02T04:34:54.582Z,11.00
2023-05-02T04:37:21.302Z,10.95
2023-05-02T04:39:47.750Z,10.96
2023-05-02T04:42:14.314Z,11.10
2023-05-02T04:44:40.777Z,10.86
2023-05-02T04:47:07.269Z,10.97
2023-05-02T04:49:33.736Z,11.06
2023-05-02T04:52:00.294Z,10.76
2023-05-02T04:54:26.865Z,10.91
2023-05-02T04:56:53.452Z,10.83
2023-05-02T04:59:20.015Z,10.89
2023-05-02T05:01:46.584Z,10.90
2023-05-02T05:04:13.267Z,11.04
2023-05-02T05:06:40.122Z,11.18
2023-05-02T05:09:07.147Z,11.05
2023-05-02T05:11:33.600Z,10.89
2023-05-02T05:14:00.761Z,10.93
2023-05-02T05:16:27.245Z,10.94
2023-05-02T05:18:54.045Z,11.05
2023-05-02T05:21:20.782Z,10.75
2023-05-02T05:23:47.690Z,10.72
2023-05-02T05:26:16.242Z,10.84
2023-05-02T05:28:43.945Z,10.87
2023-05-02T05:31:13.073Z,10.87
2023-05-02T05:33:41.021Z,10.98
2023-05-02T05:36:08.723Z,10.92
2023-05-02T05:38:35.841Z,10.90
2023-05-02T05:41:02.679Z,10.94
2023-05-02T05:43:29.749Z,11.01
2023-05-02T05:45:56.372Z,11.09
2023-05-02T05:48:23.491Z,11.03
2023-05-02T05:50:51.988Z,11.07
2023-05-02T05:53:19.356Z,10.94
2023-05-02T05:55:45.942Z,10.92
2023-05-02T05:58:12.679Z,11.03
2023-05-02T06:00:40.091Z,11.14
2023-05-02T06:03:09.630Z,11.12
2023-05-02T06:05:37.002Z,11.20
2023-05-02T06:08:03.619Z,11.24
2023-05-02T06:10:31.423Z,11.23
2023-05-02T06:12:58.028Z,11.29
2023-05-02T06:15:24.510Z,11.31
2023-05-02T06:17:52.047Z,11.35
2023-05-02T06:20:18.943Z,11.05
2023-05-02T06:22:45.432Z,10.92
2023-05-02T06:25:11.947Z,11.08
2023-05-02T06:27:38.376Z,11.04
2023-05-02T06:30:06.076Z,11.07
2023-05-02T06:32:32.746Z,11.21
2023-05-02T06:34:59.251Z,11.26
2023-05-02T06:37:25.831Z,11.32
2023-05-02T06:39:52.301Z,11.23
2023-05-02T06:42:18.819Z,11.19
2023-05-02T06:44:45.438Z,11.39
2023-05-02T06:47:12.136Z,11.35
2023-05-02T06:49:38.773Z,11.43
2023-05-02T06:52:05.340Z,11.39
2023-05-02T06:54:31.751Z,11.51
2023-05-02T06:56:59.299Z,11.68
2023-05-02T06:59:26.305Z,11.76
2023-05-02T07:01:52.694Z,11.78
2023-05-02T07:04:19.186Z,11.90
2023-05-02T07:06:46.926Z,11.74
2023-05-02T07:09:13.436Z,12.19
2023-05-02T07:11:40.008Z,12.11
2023-05-02T07:14:06.592Z,12.50
2023-05-02T07:16:33.287Z,12.51
2023-05-02T07:19:00.180Z,12.60
2023-05-02T07:21:26.629Z,12.50
2023-05-02T07:23:55.277Z,11.85
2023-05-02T07:26:23.542Z,12.16
2023-05-02T07:28:50.113Z,12.11
2023-05-02T07:31:18.838Z,12.29
2023-05-02T07:33:45.531Z,12.16
2023-05-02T07:36:11.973Z,12.33
2023-05-02T07:38:38.365Z,12.57
2023-05-02T07:41:04.787Z,12.08
2023-05-02T07:43:31.426Z,12.10
2023-05-02T07:45:58.328Z,11.92
2023-05-02T07:48:26.168Z,11.53
2023-05-02T07:50:54.140Z,11.33
2023-05-02T07:53:20.520Z,11.41
2023-05-02T07:55:47.584Z,11.27
2023-05-02T07:58:14.001Z,11.24
2023-05-02T08:00:40.510Z,11.46
2023-05-02T08:03:07.854Z,11.54
2023-05-02T08:05:34.426Z,11.36
2023-05-02T08:08:01.927Z,12.05
2023-05-02T08:10:28.612Z,11.97
2023-05-02T08:12:55.188Z,12.43
2023-05-02T08:15:21.660Z,12.94
2023-05-02T08:17:48.216Z,12.97
2023-05-02T08:20:14.749Z,13.63
2023-05-02T08:22:41.250Z,13.46
2023-05-02T08:25:08.100Z,13.34
2023-05-02T08:27:35.550Z,13.54
2023-05-02T08:30:02.110Z,14.32
2023-05-02T08:32:30.157Z,14.46
2023-05-02T08:34:59.782Z,14.60
2023-05-02T08:37:26.303Z,14.62
2023-05-02T08:39:52.726Z,15.08
2023-05-02T08:42:20.744Z,14.69
2023-05-02T08:44:48.901Z,14.26
2023-05-02T08:47:16.076Z,15.50
2023-05-02T08:49:43.020Z,15.17
2023-05-02T08:52:12.150Z,15.12
2023-05-02T08:54:39.058Z,14.83
2023-05-02T08:57:05.886Z,14.33
2023-05-02T08:59:32.468Z,13.90
2023-05-02T09:02:12.583Z,13.42
2023-05-02T09:04:42.246Z,13.87
2023-05-02T09:07:10.721Z,13.48
2023-05-02T09:09:37.720Z,13.47
2023-05-02T09:12:04.249Z,13.51
2023-05-02T09:14:30.787Z,13.90
2023-05-02T09:17:00.945Z,14.50
2023-05-02T09:19:27.870Z,14.71
2023-05-02T09:22:01.315Z,14.61
2023-05-02T09:24:29.071Z,14.35
2023-05-02T09:26:58.610Z,14.01
2023-05-02T09:29:25.445Z,13.80
2023-05-02T09:31:56.133Z,13.98
2023-05-02T09:34:24.061Z,14.02
2023-05-02T09:36:53.800Z,13.92
2023-05-02T09:39:26.090Z,14.38
2023-05-02T09:41:53.028Z,14.47
2023-05-02T09:44:22.272Z,14.42
2023-05-02T09:46:51.073Z,15.20
2023-05-02T09:49:19.033Z,15.18
2023-05-02T09:51:47.390Z,15.37
2023-05-02T09:54:36.407Z,15.24
2023-05-02T09:57:03.737Z,15.33
2023-05-02T09:59:30.314Z,15.38
2023-05-02T10:02:03.739Z,15.48
2023-05-02T10:04:32.263Z,16.33
2023-05-02T10:07:00.076Z,16.01
2023-05-02T10:09:32.507Z,15.85
2023-05-02T10:12:06.715Z,15.89
2023-05-02T10:14:39.513Z,15.45
2023-05-02T10:17:13.283Z,15.76
2023-05-02T10:19:53.600Z,15.53
2023-05-02T10:22:20.366Z,15.62
2023-05-02T10:24:49.645Z,15.78
2023-05-02T10:27:16.599Z,15.83
2023-05-02T10:29:44.136Z,15.28
2023-05-02T10:32:11.245Z,16.19
2023-05-02T10:34:40.390Z,16.51
2023-05-02T10:37:06.931Z,17.51
2023-05-02T10:39:33.919Z,17.01
2023-05-02T10:42:03.407Z,17.02
2023-05-02T10:44:37.972Z,17.54
2023-05-02T10:47:24.460Z,17.03
2023-05-02T10:50:01.564Z,18.89
2023-05-02T10:52:38.085Z,18.39
2023-05-02T10:55:24.080Z,17.26
2023-05-02T10:58:08.848Z,17.79
2023-05-02T11:00:35.368Z,18.54
2023-05-02T11:03:02.661Z,19.73
2023-05-02T11:05:29.573Z,19.81
2023-05-02T11:08:14.918Z,18.53
2023-05-02T11:10:41.555Z,18.74
2023-05-02T11:13:07.976Z,18.87
2023-05-02T11:15:34.371Z,18.22
2023-05-02T11:18:08.903Z,17.42
2023-05-02T11:20:36.918Z,17.72
2023-05-02T11:23:35.519Z,18.14
2023-05-02T11:26:22.257Z,17.64
2023-05-02T11:28:49.152Z,19.81
2023-05-02T11:31:27.643Z,20.14
2023-05-02T11:33:58.229Z,21.24
2023-05-02T11:36:33.664Z,22.22
2023-05-02T11:39:02.054Z,20.30
2023-05-02T11:41:44.404Z,20.87
2023-05-02T11:44:10.915Z,20.96
2023-05-02T11:46:38.558Z,20.88
2023-05-02T11:49:06.951Z,21.32
2023-05-02T11:51:35.719Z,21.01
2023-05-02T11:54:02.595Z,20.60
2023-05-02T11:56:29.238Z,21.26
2023-05-02T11:59:03.374Z,21.28
2023-05-02T12:01:30.853Z,21.23
2023-05-02T12:04:05.679Z,20.27
2023-05-02T12:06:32.294Z,20.64
2023-05-02T12:09:16.155Z,20.61
2023-05-02T12:11:43.635Z,20.79
2023-05-02T12:14:10.189Z,21.61
2023-05-02T12:16:37.018Z,20.22
2023-05-02T12:19:04.265Z,21.16
2023-05-02T12:21:33.105Z,21.05
2023-05-02T12:24:01.316Z,21.09
2023-05-02T12:26:33.086Z,20.79
2023-05-02T12:29:00.897Z,21.13
2023-05-02T12:31:29.469Z,20.87
2023-05-02T12:33:58.136Z,21.27
2023-05-02T12:36:25.214Z,21.16
2023-05-02T12:38:59.263Z,20.72
2023-05-02T12:41:36.272Z,20.43
2023-05-02T12:44:03.572Z,20.61
2023-05-02T12:46:31.456Z,20.77
2023-05-02T12:49:02.772Z,20.60
2023-05-02T12:51:31.457Z,20.83
2023-05-02T12:53:57.960Z,20.41
2023-05-02T12:56:24.698Z,20.51
2023-05-02T12:58:51.360Z,20.77
2023-05-02T13:01:17.888Z,20.71
2023-05-02T13:03:44.533Z,20.72
2023-05-02T13:06:11.442Z,21.11
2023-05-02T13:08:38.025Z,20.93
2023-05-02T13:11:04.570Z,20.39
2023-05-02T13:13:32.623Z,19.79
2023-05-02T13:15:59.157Z,19.24
2023-05-02T13:18:25.869Z,19.76
2023-05-02T13:20:52.421Z,19.77
2023-05-02T13:23:18.965Z,19.27
2023-05-02T13:25:45.741Z,19.41
2023-05-02T13:28:12.216Z,19.25
2023-05-02T13:30:38.649Z,19.16
2023-05-02T13:33:05.154Z,19.36
2023-05-02T13:35:33.375Z,19.04
2023-05-02T13:38:01.303Z,18.73
2023-05-02T13:40:28.195Z,19.08
2023-05-02T13:42:54.760Z,19.20
2023-05-02T13:45:21.377Z,19.13
2023-05-02T13:47:47.886Z,18.89
2023-05-02T13:50:14.537Z,18.97
2023-05-02T13:52:41.122Z,18.33
2023-05-02T13:55:08.144Z,18.67
2023-05-02T13:57:34.593Z,18.85
2023-05-02T14:00:01.236Z,18.87
2023-05-02T14:02:28.814Z,18.78
2023-05-02T14:04:55.486Z,18.73
2023-05-02T14:07:22.715Z,18.48
2023-05-02T14:09:49.260Z,17.49
2023-05-02T14:12:15.998Z,17.27
2023-05-02T14:14:42.381Z,17.75
2023-05-02T14:17:08.830Z,18.03
2023-05-02T14:19:35.712Z,17.39
2023-05-02T14:22:02.212Z,17.82
2023-05-02T14:24:28.623Z,18.01
2023-05-02T14:26:55.535Z,17.53
2023-05-02T14:29:21.999Z,18.06
2023-05-02T14:31:48.602Z,17.88
2023-05-02T14:34:15.194Z,18.05
2023-05-02T14:36:41.708Z,17.22
2023-05-02T14:39:08.112Z,17.65
2023-05-02T14:41:34.562Z,18.14
2023-05-02T14:44:00.995Z,17.27
2023-05-02T14:46:27.449Z,16.81
2023-05-02T14:48:53.845Z,16.42
2023-05-02T14:51:20.371Z,16.13
2023-05-02T14:53:48.701Z,16.35
2023-05-02T14:56:17.159Z,16.29
2023-05-02T14:58:43.660Z,16.15
2023-05-02T15:01:17.796Z,16.17
2023-05-02T15:04:04.358Z,15.90
2023-05-02T15:06:32.670Z,15.96
2023-05-02T15:08:59.441Z,16.02
2023-05-02T15:11:26.050Z,16.30
2023-05-02T15:13:52.472Z,15.91
2023-05-02T15:16:19.007Z,15.29
2023-05-02T15:18:45.697Z,15.72
2023-05-02T15:21:12.409Z,15.53
2023-05-02T15:23:39.129Z,15.78
2023-05-02T15:26:05.615Z,15.59
2023-05-02T15:28:32.140Z,15.47
2023-05-02T15:30:58.633Z,15.83
2023-05-02T15:33:25.073Z,15.52
2023-05-02T15:35:58.054Z,15.47
2023-05-02T15:38:25.109Z,15.47
2023-05-02T15:40:59.438Z,15.56
2023-05-02T15:43:26.916Z,15.37
2023-05-02T15:46:01.312Z,15.32
2023-05-02T15:48:29.986Z,15.55
2023-05-02T15:50:56.915Z,14.62
2023-05-02T15:53:23.859Z,14.71
2023-05-02T15:55:51.803Z,14.89
2023-05-02T15:58:19.158Z,14.75
2023-05-02T16:00:47.020Z,14.90
2023-05-02T16:03:13.882Z,14.92
2023-05-02T16:05:40.468Z,14.75
2023-05-02T16:08:07.253Z,14.88
2023-05-02T16:10:36.258Z,15.02
2023-05-02T16:13:02.732Z,14.70
2023-05-02T16:15:30.637Z,14.84
2023-05-02T16:17:57.380Z,14.91
2023-05-02T16:20:23.945Z,14.78
2023-05-02T16:22:50.451Z,14.70
2023-05-02T16:25:17.371Z,14.64
2023-05-02T16:27:44.318Z,14.16
2023-05-02T16:30:11.222Z,14.06
2023-05-02T16:32:37.825Z,14.47
2023-05-02T16:35:10.788Z,14.45
2023-05-02T16:37:37.545Z,14.50
2023-05-02T16:40:05.931Z,14.53
2023-05-02T16:42:33.007Z,14.39
2023-05-02T16:44:59.964Z,14.24
2023-05-02T16:47:27.984Z,13.99
2023-05-02T16:49:58.192Z,14.25
2023-05-02T16:52:25.466Z,14.37
2023-05-02T16:54:51.969Z,14.36
2023-05-02T16:57:20.940Z,14.37
2023-05-02T16:59:48.633Z,14.23
2023-05-02T17:02:15.810Z,14.00
2023-05-02T17:04:42.820Z,14.20
2023-05-02T17:07:11.743Z,14.13
2023-05-02T17:09:39.610Z,13.75
2023-05-02T17:12:06.959Z,13.87
2023-05-02T17:14:33.894Z,13.76
2023-05-02T17:17:01.198Z,13.67
2023-05-02T17:19:27.887Z,13.64
2023-05-02T17:21:55.058Z,13.77
2023-05-02T17:24:21.651Z,13.79
2023-05-02T17:26:48.676Z,13.49
2023-05-02T17:29:15.356Z,13.80
2023-05-02T17:31:41.914Z,13.42
2023-05-02T17:34:08.613Z,13.29
2023-05-02T17:36:36.286Z,13.38
2023-05-02T17:39:03.926Z,13.25
2023-05-02T17:41:31.375Z,13.25
2023-05-02T17:43:57.946Z,13.32
2023-05-02T17:46:24.413Z,12.92
2023-05-02T17:48:52.060Z,13.01
2023-05-02T17:51:18.570Z,12.92
2023-05-02T17:53:45.033Z,12.70
2023-05-02T17:56:12.973Z,12.86
2023-05-02T17:58:39.490Z,12.75
2023-05-02T18:01:09.924Z,12.96
2023-05-02T18:03:38.481Z,12.99
2023-05-02T18:06:05.583Z,12.78
2023-05-02T18:08:32.221Z,12.85
2023-05-02T18:11:00.030Z,12.67
2023-05-02T18:13:27.013Z,12.89
2023-05-02T18:16:01.516Z,12.61
2023-05-02T18:18:28.183Z,12.68
2023-05-02T18:20:55.861Z,12.78
2023-05-02T18:23:22.456Z,12.60
2023-05-02T18:25:49.010Z,12.51
2023-05-02T18:28:15.543Z,12.27
2023-05-02T18:30:42.058Z,11.92
2023-05-02T18:33:09.150Z,11.95
2023-05-02T18:35:35.928Z,12.14
2023-05-02T18:38:02.607Z,11.93
2023-05-02T18:40:29.118Z,11.73
2023-05-02T18:42:55.575Z,11.66
2023-05-02T18:45:22.059Z,11.73
2023-05-02T18:47:50.976Z,11.57
2023-05-02T18:50:18.140Z,11.51
2023-05-02T18:52:44.572Z,11.49
2023-05-02T18:55:11.542Z,11.51
2023-05-02T18:57:38.060Z,11.41
2023-05-02T19:00:06.442Z,11.15
2023-05-02T19:02:33.586Z,11.28
2023-05-02T19:07:27.859Z,11.00
2023-05-02T19:09:54.330Z,10.94
2023-05-02T19:12:20.815Z,10.87
2023-05-02T19:14:47.951Z,10.78
2023-05-02T19:17:14.382Z,10.67
2023-05-02T19:19:41.727Z,10.57
2023-05-02T19:22:08.220Z,10.65
2023-05-02T19:24:36.018Z,10.65
2023-05-02T19:27:06.764Z,10.44
2023-05-02T19:29:34.205Z,10.52
2023-05-02T19:32:00.747Z,10.37
2023-05-02T19:34:28.240Z,10.42
2023-05-02T19:36:54.918Z,10.33
2023-05-02T19:39:21.689Z,10.27
2023-05-02T19:41:50.165Z,10.18
2023-05-02T19:44:18.044Z,10.28
2023-05-02T19:46:44.570Z,10.10
2023-05-02T19:49:11.095Z,10.02
2023-05-02T19:51:37.617Z,9.97
2023-05-02T19:54:04.231Z,9.84
2023-05-02T19:56:30.653Z,9.98
2023-05-02T19:58:58.630Z,9.66
2023-05-02T20:01:26.699Z,9.65
2023-05-02T20:03:53.667Z,9.82
2023-05-02T20:06:20.389Z,9.78
2023-05-02T20:08:46.878Z,9.62
2023-05-02T20:11:13.505Z,9.60
2023-05-02T20:13:39.998Z,9.72
2023-05-02T20:16:07.482Z,9.47
2023-05-02T20:18:34.925Z,9.43
2023-05-02T20:21:01.529Z,9.35
2023-05-02T20:23:28.008Z,9.37
2023-05-02T20:25:54.902Z,9.33
2023-05-02T20:28:21.384Z,9.37
2023-05-02T20:30:47.917Z,9.36
2023-05-02T20:33:16.743Z,9.31
2023-05-02T20:35:45.078Z,9.31
2023-05-02T20:38:11.986Z,9.20
2023-05-02T20:40:42.701Z,9.06
2023-05-02T20:43:09.260Z,9.24
2023-05-02T20:45:35.799Z,9.11
2023-05-02T20:48:02.292Z,9.00
2023-05-02T20:50:28.781Z,8.99
2023-05-02T20:52:55.436Z,8.93
2023-05-02T20:55:22.973Z,8.97
2023-05-02T20:57:53.101Z,8.94
2023-05-02T21:00:22.446Z,8.91
2023-05-02T21:02:49.345Z,8.85
2023-05-02T21:05:16.106Z,8.92
2023-05-02T21:07:42.660Z,8.89
2023-05-02T21:10:10.823Z,8.88
2023-05-02T21:12:37.304Z,8.94
2023-05-02T21:15:04.062Z,8.67
2023-05-02T21:17:30.514Z,8.80
2023-05-02T21:19:57.034Z,8.75
2023-05-02T21:22:23.452Z,8.69
2023-05-02T21:24:50.377Z,8.71
2023-05-02T21:27:16.832Z,8.59
2023-05-02T21:29:43.375Z,8.53
2023-05-02T21:32:10.726Z,8.52
2023-05-02T21:34:37.391Z,8.53
2023-05-02T21:37:04.116Z,8.43
2023-05-02T21:39:30.581Z,8.45
2023-05-02T21:41:57.030Z,8.37
2023-05-02T21:44:23.524Z,8.38
2023-05-02T21:46:50.707Z,8.29
2023-05-02T21:49:17.202Z,8.14
2023-05-02T21:51:43.643Z,8.23
2023-05-02T21:54:10.112Z,8.15
2023-05-02T21:56:36.564Z,8.12
2023-05-02T21:59:03.433Z,8.10
2023-05-02T22:01:30.071Z,8.04
2023-05-02T22:03:58.078Z,7.92
2023-05-02T22:06:25.143Z,7.88
2023-05-02T22:08:52.787Z,7.96
2023-05-02T22:11:21.648Z,7.82
2023-05-02T22:13:48.468Z,7.91
2023-05-02T22:16:15.458Z,8.03
2023-05-02T22:18:44.661Z,8.00
2023-05-02T22:21:12.071Z,7.85
2023-05-02T22:23:38.570Z,8.01
2023-05-02T22:26:05.020Z,8.05
2023-05-02T22:28:31.605Z,7.95
2023-05-02T22:30:58.141Z,8.02
2023-05-02T22:33:24.992Z,7.74
2023-05-02T22:35:51.457Z,7.81
2023-05-02T22:38:19.768Z,7.84
2023-05-02T22:40:46.597Z,7.80
2023-05-02T22:43:13.244Z,7.86
2023-05-02T22:45:39.706Z,7.93
2023-05-02T22:48:07.139Z,7.91
2023-05-02T22:50:33.987Z,7.93
2023-05-02T22:53:03.726Z,7.84
2023-05-02T22:55:30.618Z,7.83
2023-05-02T22:57:57.175Z,7.92
2023-05-02T23:00:24.732Z,7.90
2023-05-02T23:02:51.397Z,7.82
2023-05-02T23:05:17.939Z,7.80
2023-05-02T23:07:44.394Z,7.73
2023-05-02T23:10:10.962Z,7.71
2023-05-02T23:12:37.479Z,7.70
2023-05-02T23:15:04.305Z,7.58
2023-05-02T23:17:30.788Z,7.72
2023-05-02T23:19:57.605Z,7.53
2023-05-02T23:22:24.124Z,7.61
2023-05-02T23:24:50.710Z,7.59
2023-05-02T23:27:17.135Z,7.60
2023-05-02T23:29:43.626Z,7.56
2023-05-02T23:32:10.173Z,7.47
2023-05-02T23:34:37.158Z,7.60
2023-05-02T23:37:06.180Z,7.46
2023-05-02T23:39:33.382Z,7.27
2023-05-02T23:42:00.688Z,7.13
2023-05-02T23:44:27.108Z,7.37
2023-05-02T23:46:53.738Z,7.36
2023-05-02T23:49:21.250Z,7.34
2023-05-02T23:51:47.827Z,7.39
2023-05-02T23:54:14.510Z,7.38
2023-05-02T23:56:40.949Z,7.38
2023-05-02T23:59:07.491Z,7.18
